createdAt,value
2023-06-27T00:00:21.892Z,88757.00
2023-06-27T00:01:21.909Z,88761.00
2023-06-27T00:02:22.060Z,88761.00
2023-06-27T00:03:21.866Z,88765.00
2023-06-27T00:04:21.821Z,88757.00
2023-06-27T00:05:21.788Z,88757.00
2023-06-27T00:06:21.782Z,88755.00
2023-06-27T00:07:21.785Z,88751.00
2023-06-27T00:08:21.740Z,88751.00
2023-06-27T00:09:21.729Z,88749.00
2023-06-27T00:10:21.729Z,88749.00
2023-06-27T00:11:21.670Z,88749.00
2023-06-27T00:12:21.648Z,88749.00
2023-06-27T00:13:21.633Z,88743.00
2023-06-27T00:14:21.598Z,88747.00
2023-06-27T00:15:21.580Z,88745.00
2023-06-27T00:16:21.573Z,88741.00
2023-06-27T00:17:21.553Z,88745.00
2023-06-27T00:18:21.510Z,88747.00
2023-06-27T00:19:21.610Z,88747.00
2023-06-27T00:20:21.471Z,88749.00
2023-06-27T00:21:21.446Z,88753.00
2023-06-27T00:22:21.416Z,88753.00
2023-06-27T00:23:21.413Z,88757.00
2023-06-27T00:24:21.386Z,88755.00
2023-06-27T00:25:21.363Z,88761.00
2023-06-27T00:26:21.351Z,88759.00
2023-06-27T00:27:21.315Z,88757.00
2023-06-27T00:28:21.296Z,88759.00
2023-06-27T00:29:21.280Z,88761.00
2023-06-27T00:30:21.247Z,88763.00
2023-06-27T00:31:21.297Z,88767.00
2023-06-27T00:32:21.241Z,88765.00
2023-06-27T00:33:21.196Z,88765.00
2023-06-27T00:34:21.184Z,88767.00
2023-06-27T00:35:21.152Z,88769.00
2023-06-27T00:36:21.153Z,88771.00
2023-06-27T00:37:21.197Z,88769.00
2023-06-27T00:38:21.205Z,88767.00
2023-06-27T00:39:21.232Z,88767.00
2023-06-27T00:40:21.260Z,88767.00
2023-06-27T00:41:21.265Z,88767.00
2023-06-27T00:42:21.306Z,88763.00
2023-06-27T00:43:21.348Z,88763.00
2023-06-27T00:44:21.338Z,88759.00
2023-06-27T00:45:21.374Z,88761.00
2023-06-27T00:46:21.386Z,88761.00
2023-06-27T00:47:21.414Z,88763.00
2023-06-27T00:48:21.444Z,88763.00
2023-06-27T00:49:21.462Z,88761.00
2023-06-27T00:50:21.474Z,88765.00
2023-06-27T00:51:21.493Z,88767.00
2023-06-27T00:52:21.529Z,88771.00
2023-06-27T00:53:21.552Z,88769.00
2023-06-27T00:54:21.572Z,88767.00
2023-06-27T00:55:21.597Z,88767.00
2023-06-27T00:56:21.627Z,88769.00
2023-06-27T00:57:21.646Z,88763.00
2023-06-27T00:58:21.632Z,88763.00
2023-06-27T00:59:21.623Z,88763.00
2023-06-27T01:00:21.595Z,88765.00
2023-06-27T01:01:21.582Z,88765.00
2023-06-27T01:02:21.560Z,88767.00
2023-06-27T01:03:21.578Z,88769.00
2023-06-27T01:04:21.494Z,88767.00
2023-06-27T01:05:21.480Z,88767.00
2023-06-27T01:06:21.461Z,88767.00
2023-06-27T01:07:21.562Z,88769.00
2023-06-27T01:08:21.440Z,88771.00
2023-06-27T01:09:21.417Z,88771.00
2023-06-27T01:10:21.403Z,88773.00
2023-06-27T01:11:21.390Z,88771.00
2023-06-27T01:12:21.455Z,88769.00
2023-06-27T01:13:21.480Z,88767.00
2023-06-27T01:14:21.483Z,88769.00
2023-06-27T01:15:21.518Z,88769.00
2023-06-27T01:16:21.534Z,88769.00
2023-06-27T01:17:21.612Z,88769.00
2023-06-27T01:18:21.607Z,88767.00
2023-06-27T01:19:21.637Z,88769.00
2023-06-27T01:20:21.674Z,88767.00
2023-06-27T01:21:21.700Z,88767.00
2023-06-27T01:22:21.736Z,88763.00
2023-06-27T01:23:21.776Z,88755.00
2023-06-27T01:24:21.787Z,88755.00
2023-06-27T01:25:21.822Z,88755.00
2023-06-27T01:26:21.864Z,88751.00
2023-06-27T01:27:21.881Z,88755.00
2023-06-27T01:28:21.894Z,88757.00
2023-06-27T01:29:21.930Z,88757.00
2023-06-27T01:30:21.983Z,88755.00
2023-06-27T01:31:22.047Z,88755.00
2023-06-27T01:32:22.056Z,88755.00
2023-06-27T01:33:22.003Z,88749.00
2023-06-27T01:34:21.975Z,88753.00
2023-06-27T01:35:21.959Z,88753.00
2023-06-27T01:36:21.950Z,88749.00
2023-06-27T01:37:21.926Z,88751.00
2023-06-27T01:38:21.936Z,88743.00
2023-06-27T01:39:21.891Z,88745.00
2023-06-27T01:40:21.864Z,88743.00
2023-06-27T01:41:21.946Z,88745.00
2023-06-27T01:42:21.840Z,88745.00
2023-06-27T01:43:21.841Z,88747.00
2023-06-27T01:44:21.811Z,88747.00
2023-06-27T01:45:21.824Z,88749.00
2023-06-27T01:46:21.961Z,88745.00
2023-06-27T01:47:21.910Z,88749.00
2023-06-27T01:48:21.958Z,88745.00
2023-06-27T01:49:21.951Z,88743.00
2023-06-27T01:50:21.992Z,88741.00
2023-06-27T01:51:22.024Z,88736.00
2023-06-27T01:52:22.053Z,88734.00
2023-06-27T01:53:22.094Z,88734.00
2023-06-27T01:54:22.122Z,88734.00
2023-06-27T01:55:22.151Z,88734.00
2023-06-27T01:56:22.190Z,88734.00
2023-06-27T01:57:22.235Z,88727.00
2023-06-27T01:58:22.259Z,88723.00
2023-06-27T01:59:22.293Z,88721.00
2023-06-27T02:00:22.337Z,88725.00
2023-06-27T02:01:22.419Z,88723.00
2023-06-27T02:02:22.456Z,88723.00
2023-06-27T02:03:22.494Z,88719.00
2023-06-27T02:04:22.454Z,88717.00
2023-06-27T02:05:22.499Z,88717.00
2023-06-27T02:06:22.523Z,88717.00
2023-06-27T02:07:22.599Z,88717.00
2023-06-27T02:08:22.629Z,88717.00
2023-06-27T02:09:22.636Z,88717.00
2023-06-27T02:10:22.676Z,88715.00
2023-06-27T02:11:22.692Z,88715.00
2023-06-27T02:12:22.733Z,88717.00
2023-06-27T02:13:22.778Z,88719.00
2023-06-27T02:14:22.829Z,88717.00
2023-06-27T02:15:22.838Z,88715.00
2023-06-27T02:16:22.897Z,88715.00
2023-06-27T02:17:22.938Z,88719.00
2023-06-27T02:18:22.955Z,88717.00
2023-06-27T02:19:22.986Z,88713.00
2023-06-27T02:20:23.019Z,88711.00
2023-06-27T02:21:23.058Z,88711.00
2023-06-27T02:22:23.113Z,88711.00
2023-06-27T02:23:23.162Z,88711.00
2023-06-27T02:24:23.197Z,88711.00
2023-06-27T02:25:23.305Z,88709.00
2023-06-27T02:26:23.262Z,88713.00
2023-06-27T02:27:23.309Z,88711.00
2023-06-27T02:28:23.338Z,88711.00
2023-06-27T02:29:23.381Z,88711.00
2023-06-27T02:30:23.413Z,88713.00
2023-06-27T02:31:23.555Z,88711.00
2023-06-27T02:32:23.528Z,88711.00
2023-06-27T02:33:23.539Z,88713.00
2023-06-27T02:34:23.567Z,88715.00
2023-06-27T02:35:23.612Z,88713.00
2023-06-27T02:36:23.644Z,88715.00
2023-06-27T02:37:23.700Z,88717.00
2023-06-27T02:38:23.743Z,88717.00
2023-06-27T02:39:23.794Z,88715.00
2023-06-27T02:40:23.831Z,88715.00
2023-06-27T02:41:23.873Z,88715.00
2023-06-27T02:42:23.932Z,88713.00
2023-06-27T02:43:23.976Z,88713.00
2023-06-27T02:44:24.004Z,88717.00
2023-06-27T02:45:24.048Z,88713.00
2023-06-27T02:46:24.198Z,88715.00
2023-06-27T02:47:24.169Z,88713.00
2023-06-27T02:48:24.187Z,88717.00
2023-06-27T02:49:24.231Z,88721.00
2023-06-27T02:50:24.285Z,88719.00
2023-06-27T02:51:24.322Z,88719.00
2023-06-27T02:52:24.360Z,88715.00
2023-06-27T02:53:24.439Z,88715.00
2023-06-27T02:54:24.435Z,88713.00
2023-06-27T02:55:24.490Z,88709.00
2023-06-27T02:56:24.519Z,88709.00
2023-06-27T02:57:24.573Z,88709.00
2023-06-27T02:58:24.611Z,88711.00
2023-06-27T02:59:24.663Z,88711.00
2023-06-27T03:00:24.682Z,88709.00
2023-06-27T03:01:24.891Z,88709.00
2023-06-27T03:02:24.824Z,88709.00
2023-06-27T03:03:24.950Z,88709.00
2023-06-27T03:04:24.876Z,88709.00
2023-06-27T03:05:24.904Z,88711.00
2023-06-27T03:06:24.929Z,88707.00
2023-06-27T03:07:25.108Z,88707.00
2023-06-27T03:08:25.021Z,88705.00
2023-06-27T03:09:25.040Z,88709.00
2023-06-27T03:10:25.109Z,88707.00
2023-06-27T03:11:25.134Z,88707.00
2023-06-27T03:12:25.180Z,88709.00
2023-06-27T03:13:25.242Z,88709.00
2023-06-27T03:14:25.286Z,88709.00
2023-06-27T03:15:25.315Z,88711.00
2023-06-27T03:16:25.338Z,88711.00
2023-06-27T03:17:25.386Z,88711.00
2023-06-27T03:18:25.346Z,88711.00
2023-06-27T03:19:34.439Z,88709.00
2023-06-27T03:20:26.336Z,88709.00
2023-06-27T03:21:25.305Z,88709.00
2023-06-27T03:22:25.286Z,88713.00
2023-06-27T03:23:25.274Z,88713.00
2023-06-27T03:24:25.255Z,88711.00
2023-06-27T03:25:25.273Z,88711.00
2023-06-27T03:26:25.240Z,88713.00
2023-06-27T03:27:25.207Z,88713.00
2023-06-27T03:28:25.208Z,88715.00
2023-06-27T03:29:25.198Z,88717.00
2023-06-27T03:30:25.182Z,88719.00
2023-06-27T03:31:25.196Z,88717.00
2023-06-27T03:32:25.203Z,88717.00
2023-06-27T03:33:25.136Z,88715.00
2023-06-27T03:34:25.117Z,88717.00
2023-06-27T03:35:25.111Z,88717.00
2023-06-27T03:36:25.086Z,88719.00
2023-06-27T03:37:25.074Z,88721.00
2023-06-27T03:38:25.087Z,88719.00
2023-06-27T03:39:25.039Z,88717.00
2023-06-27T03:40:25.028Z,88719.00
2023-06-27T03:41:25.009Z,88717.00
2023-06-27T03:42:24.980Z,88715.00
2023-06-27T03:43:24.967Z,88715.00
2023-06-27T03:44:24.995Z,88715.00
2023-06-27T03:45:24.935Z,88717.00
2023-06-27T03:46:24.915Z,88721.00
2023-06-27T03:47:24.907Z,88717.00
2023-06-27T03:48:24.903Z,88719.00
2023-06-27T03:49:24.871Z,88719.00
2023-06-27T03:50:24.877Z,88717.00
2023-06-27T03:51:24.858Z,88717.00
2023-06-27T03:52:24.841Z,88717.00
2023-06-27T03:53:24.822Z,88713.00
2023-06-27T03:54:24.811Z,88715.00
2023-06-27T03:55:24.794Z,88709.00
2023-06-27T03:56:24.790Z,88709.00
2023-06-27T03:57:24.783Z,88711.00
2023-06-27T03:58:24.790Z,88711.00
2023-06-27T03:59:24.749Z,88713.00
2023-06-27T04:00:24.739Z,88713.00
2023-06-27T04:01:24.726Z,88709.00
2023-06-27T04:02:24.808Z,88709.00
2023-06-27T04:03:24.758Z,88709.00
2023-06-27T04:04:24.804Z,88711.00
2023-06-27T04:05:24.680Z,88707.00
2023-06-27T04:06:24.679Z,88709.00
2023-06-27T04:07:24.697Z,88707.00
2023-06-27T04:08:24.672Z,88709.00
2023-06-27T04:09:24.649Z,88707.00
2023-06-27T04:10:24.633Z,88709.00
2023-06-27T04:11:24.623Z,88707.00
2023-06-27T04:12:24.628Z,88709.00
2023-06-27T04:13:24.603Z,88711.00
2023-06-27T04:14:26.232Z,88709.00
2023-06-27T04:15:24.591Z,88713.00
2023-06-27T04:16:24.569Z,88713.00
2023-06-27T04:17:24.612Z,88715.00
2023-06-27T04:18:24.566Z,88713.00
2023-06-27T04:19:24.580Z,88713.00
2023-06-27T04:20:24.531Z,88715.00
2023-06-27T04:21:24.527Z,88717.00
2023-06-27T04:22:24.512Z,88717.00
2023-06-27T04:23:24.494Z,88715.00
2023-06-27T04:24:24.474Z,88715.00
2023-06-27T04:25:24.469Z,88715.00
2023-06-27T04:26:24.453Z,88717.00
2023-06-27T04:27:24.464Z,88717.00
2023-06-27T04:28:24.416Z,88715.00
2023-06-27T04:29:24.432Z,88715.00
2023-06-27T04:30:24.388Z,88713.00
2023-06-27T04:31:24.402Z,88717.00
2023-06-27T04:32:24.379Z,88717.00
2023-06-27T04:33:24.342Z,88717.00
2023-06-27T04:34:24.335Z,88721.00
2023-06-27T04:35:24.305Z,88719.00
2023-06-27T04:36:24.301Z,88723.00
2023-06-27T04:37:24.284Z,88725.00
2023-06-27T04:38:24.266Z,88727.00
2023-06-27T04:39:24.252Z,88734.00
2023-06-27T04:40:24.289Z,88727.00
2023-06-27T04:41:24.287Z,88725.00
2023-06-27T04:42:24.301Z,88725.00
2023-06-27T04:43:24.320Z,88725.00
2023-06-27T04:44:24.343Z,88723.00
2023-06-27T04:45:24.336Z,88725.00
2023-06-27T04:46:24.351Z,88723.00
2023-06-27T04:47:24.323Z,88721.00
2023-06-27T04:48:24.312Z,88721.00
2023-06-27T04:49:24.289Z,88721.00
2023-06-27T04:50:24.280Z,88717.00
2023-06-27T04:51:24.265Z,88717.00
2023-06-27T04:52:24.266Z,88719.00
2023-06-27T04:53:24.249Z,88717.00
2023-06-27T04:54:24.225Z,88719.00
2023-06-27T04:55:24.212Z,88719.00
2023-06-27T04:56:24.216Z,88719.00
2023-06-27T04:57:24.188Z,88717.00
2023-06-27T04:58:24.192Z,88717.00
2023-06-27T04:59:24.193Z,88717.00
2023-06-27T05:00:24.156Z,88717.00
2023-06-27T05:01:24.268Z,88721.00
2023-06-27T05:02:24.153Z,88721.00
2023-06-27T05:03:24.118Z,88723.00
2023-06-27T05:04:24.146Z,88725.00
2023-06-27T05:05:24.076Z,88725.00
2023-06-27T05:06:24.078Z,88725.00
2023-06-27T05:07:24.094Z,88725.00
2023-06-27T05:08:24.077Z,88723.00
2023-06-27T05:09:24.038Z,88721.00
2023-06-27T05:10:24.008Z,88725.00
2023-06-27T05:11:24.037Z,88725.00
2023-06-27T05:12:23.979Z,88725.00
2023-06-27T05:13:23.979Z,88723.00
2023-06-27T05:14:23.954Z,88721.00
2023-06-27T05:15:23.962Z,88723.00
2023-06-27T05:16:23.918Z,88721.00
2023-06-27T05:17:23.978Z,88723.00
2023-06-27T05:18:23.907Z,88723.00
2023-06-27T05:19:23.882Z,88727.00
2023-06-27T05:20:23.909Z,88727.00
2023-06-27T05:21:23.880Z,88734.00
2023-06-27T05:22:23.854Z,88736.00
2023-06-27T05:23:23.823Z,88736.00
2023-06-27T05:24:23.821Z,88740.00
2023-06-27T05:25:23.789Z,88741.00
2023-06-27T05:26:23.796Z,88741.00
2023-06-27T05:27:23.791Z,88741.00
2023-06-27T05:28:23.771Z,88741.00
2023-06-27T05:29:26.957Z,88747.00
2023-06-27T05:30:23.784Z,88743.00
2023-06-27T05:31:23.827Z,88741.00
2023-06-27T05:32:24.758Z,88745.00
2023-06-27T05:33:23.685Z,88747.00
2023-06-27T05:34:23.684Z,88747.00
2023-06-27T05:35:23.686Z,88747.00
2023-06-27T05:36:23.659Z,88749.00
2023-06-27T05:37:23.701Z,88747.00
2023-06-27T05:38:23.616Z,88745.00
2023-06-27T05:39:23.722Z,88747.00
2023-06-27T05:40:23.619Z,88747.00
2023-06-27T05:41:23.591Z,88749.00
2023-06-27T05:42:23.691Z,88749.00
2023-06-27T05:43:23.668Z,88747.00
2023-06-27T05:44:23.548Z,88749.00
2023-06-27T05:45:23.528Z,88743.00
2023-06-27T05:46:23.521Z,88749.00
2023-06-27T05:47:23.510Z,88747.00
2023-06-27T05:48:23.493Z,88747.00
2023-06-27T05:49:23.462Z,88749.00
2023-06-27T05:50:23.437Z,88745.00
2023-06-27T05:51:23.459Z,88743.00
2023-06-27T05:52:23.424Z,88743.00
2023-06-27T05:53:23.473Z,88743.00
2023-06-27T05:54:23.473Z,88743.00
2023-06-27T05:55:23.537Z,88747.00
2023-06-27T05:56:23.588Z,88747.00
2023-06-27T05:57:23.626Z,88745.00
2023-06-27T05:58:23.680Z,88745.00
2023-06-27T05:59:23.772Z,88749.00
2023-06-27T06:00:23.781Z,88747.00
2023-06-27T06:01:23.758Z,88749.00
2023-06-27T06:02:23.863Z,88749.00
2023-06-27T06:03:23.877Z,88753.00
2023-06-27T06:04:23.866Z,88749.00
2023-06-27T06:05:23.761Z,88749.00
2023-06-27T06:06:23.795Z,88749.00
2023-06-27T06:07:23.892Z,88753.00
2023-06-27T06:08:23.809Z,88749.00
2023-06-27T06:09:23.833Z,88753.00
2023-06-27T06:10:23.877Z,88749.00
2023-06-27T06:11:23.909Z,88749.00
2023-06-27T06:12:23.968Z,88755.00
2023-06-27T06:13:24.005Z,88751.00
2023-06-27T06:14:24.056Z,88753.00
2023-06-27T06:15:24.085Z,88755.00
2023-06-27T06:16:24.135Z,88761.00
2023-06-27T06:17:24.198Z,88761.00
2023-06-27T06:18:24.187Z,88757.00
2023-06-27T06:19:24.228Z,88761.00
2023-06-27T06:20:24.235Z,88761.00
2023-06-27T06:21:24.222Z,88759.00
2023-06-27T06:22:24.198Z,88759.00
2023-06-27T06:23:24.188Z,88763.00
2023-06-27T06:24:24.215Z,88767.00
2023-06-27T06:25:24.180Z,88767.00
2023-06-27T06:26:24.135Z,88769.00
2023-06-27T06:27:24.115Z,88767.00
2023-06-27T06:28:24.106Z,88769.00
2023-06-27T06:29:24.105Z,88767.00
2023-06-27T06:30:24.151Z,88767.00
2023-06-27T06:31:24.120Z,88767.00
2023-06-27T06:32:24.102Z,88765.00
2023-06-27T06:33:24.020Z,88767.00
2023-06-27T06:34:24.016Z,88775.00
2023-06-27T06:35:23.986Z,88775.00
2023-06-27T06:36:23.983Z,88777.00
2023-06-27T06:37:24.058Z,88781.00
2023-06-27T06:38:23.964Z,88783.00
2023-06-27T06:39:23.936Z,88783.00
2023-06-27T06:40:23.917Z,88785.00
2023-06-27T06:41:23.914Z,88787.00
2023-06-27T06:42:23.927Z,88783.00
2023-06-27T06:43:23.918Z,88783.00
2023-06-27T06:44:23.887Z,88783.00
2023-06-27T06:45:23.831Z,88783.00
2023-06-27T06:46:23.861Z,88785.00
2023-06-27T06:47:23.943Z,88789.00
2023-06-27T06:48:23.805Z,88785.00
2023-06-27T06:49:23.809Z,88781.00
2023-06-27T06:50:23.781Z,88781.00
2023-06-27T06:51:23.766Z,88785.00
2023-06-27T06:52:23.775Z,88785.00
2023-06-27T06:53:23.774Z,88789.00
2023-06-27T06:54:23.737Z,88789.00
2023-06-27T06:55:23.743Z,88789.00
2023-06-27T06:56:23.789Z,88791.00
2023-06-27T06:57:23.843Z,88791.00
2023-06-27T06:58:23.894Z,88791.00
2023-06-27T06:59:23.989Z,88793.00
2023-06-27T07:00:24.006Z,88787.00
2023-06-27T07:01:24.073Z,88787.00
2023-06-27T07:02:24.083Z,88785.00
2023-06-27T07:03:24.102Z,88785.00
2023-06-27T07:04:24.196Z,88785.00
2023-06-27T07:05:24.228Z,88785.00
2023-06-27T07:06:24.288Z,88785.00
2023-06-27T07:07:24.353Z,88787.00
2023-06-27T07:08:24.276Z,88789.00
2023-06-27T07:09:24.319Z,88785.00
2023-06-27T07:10:24.258Z,88785.00
2023-06-27T07:11:24.250Z,88787.00
2023-06-27T07:12:24.246Z,88785.00
2023-06-27T07:13:24.255Z,88787.00
2023-06-27T07:14:24.230Z,88785.00
2023-06-27T07:15:24.217Z,88783.00
2023-06-27T07:16:24.209Z,88785.00
2023-06-27T07:17:24.226Z,88781.00
2023-06-27T07:18:24.263Z,88783.00
2023-06-27T07:19:24.162Z,88779.00
2023-06-27T07:20:24.191Z,88781.00
2023-06-27T07:21:24.262Z,88777.00
2023-06-27T07:22:24.268Z,88777.00
2023-06-27T07:23:24.238Z,88775.00
2023-06-27T07:24:24.234Z,88775.00
2023-06-27T07:25:24.206Z,88771.00
2023-06-27T07:26:24.210Z,88773.00
2023-06-27T07:27:24.209Z,88775.00
2023-06-27T07:28:24.174Z,88777.00
2023-06-27T07:29:24.171Z,88775.00
2023-06-27T07:30:24.162Z,88775.00
2023-06-27T07:31:24.202Z,88773.00
2023-06-27T07:32:24.190Z,88773.00
2023-06-27T07:33:24.213Z,88775.00
2023-06-27T07:34:24.248Z,88771.00
2023-06-27T07:35:24.285Z,88775.00
2023-06-27T07:36:24.367Z,88773.00
2023-06-27T07:37:24.370Z,88773.00
2023-06-27T07:38:24.431Z,88773.00
2023-06-27T07:39:24.489Z,88771.00
2023-06-27T07:40:24.504Z,88771.00
2023-06-27T07:41:24.573Z,88771.00
2023-06-27T07:42:24.555Z,88771.00
2023-06-27T07:43:24.571Z,88771.00
2023-06-27T07:44:24.647Z,88773.00
2023-06-27T07:45:24.614Z,88771.00
2023-06-27T07:46:24.622Z,88769.00
2023-06-27T07:47:24.714Z,88765.00
2023-06-27T07:48:24.607Z,88765.00
2023-06-27T07:49:24.654Z,88767.00
2023-06-27T07:50:24.580Z,88767.00
2023-06-27T07:51:24.571Z,88769.00
2023-06-27T07:52:24.587Z,88769.00
2023-06-27T07:53:24.551Z,88765.00
2023-06-27T07:54:25.980Z,88763.00
2023-06-27T07:55:24.502Z,88763.00
2023-06-27T07:56:24.498Z,88761.00
2023-06-27T07:57:24.481Z,88761.00
2023-06-27T07:58:24.467Z,88759.00
2023-06-27T07:59:24.481Z,88759.00
2023-06-27T08:00:24.522Z,88753.00
2023-06-27T08:01:24.477Z,88749.00
2023-06-27T08:02:24.522Z,88749.00
2023-06-27T08:03:24.480Z,88747.00
2023-06-27T08:04:24.416Z,88745.00
2023-06-27T08:05:24.376Z,88741.00
2023-06-27T08:06:24.353Z,88741.00
2023-06-27T08:07:24.420Z,88741.00
2023-06-27T08:08:24.342Z,88741.00
2023-06-27T08:09:24.325Z,88738.00
2023-06-27T08:10:24.466Z,88741.00
2023-06-27T08:11:24.301Z,88740.00
2023-06-27T08:12:24.278Z,88736.00
2023-06-27T08:13:24.254Z,88740.00
2023-06-27T08:14:24.245Z,88727.00
2023-06-27T08:15:24.219Z,88725.00
2023-06-27T08:16:24.215Z,88727.00
2023-06-27T08:17:24.248Z,88723.00
2023-06-27T08:18:24.182Z,88719.00
2023-06-27T08:19:24.167Z,88713.00
2023-06-27T08:20:24.153Z,88713.00
2023-06-27T08:21:24.134Z,88707.00
2023-06-27T08:22:24.137Z,88705.00
2023-06-27T08:23:24.149Z,88707.00
2023-06-27T08:24:24.122Z,88707.00
2023-06-27T08:25:24.134Z,88707.00
2023-06-27T08:26:24.194Z,88707.00
2023-06-27T08:27:24.201Z,88707.00
2023-06-27T08:28:24.217Z,88705.00
2023-06-27T08:29:24.207Z,88705.00
2023-06-27T08:30:24.320Z,88707.00
2023-06-27T08:31:24.381Z,88705.00
2023-06-27T08:32:24.236Z,88709.00
2023-06-27T08:33:24.190Z,88701.00
2023-06-27T08:34:24.194Z,88701.00
2023-06-27T08:35:24.129Z,88699.00
2023-06-27T08:36:24.137Z,88701.00
2023-06-27T08:37:24.092Z,88697.00
2023-06-27T08:38:24.524Z,88697.00
2023-06-27T08:39:24.202Z,88695.00
2023-06-27T08:40:24.392Z,88701.00
2023-06-27T08:41:24.369Z,88699.00
2023-06-27T08:42:24.370Z,88695.00
2023-06-27T08:43:24.426Z,88697.00
2023-06-27T08:44:24.518Z,88699.00
2023-06-27T08:45:24.505Z,88695.00
2023-06-27T08:46:24.550Z,88695.00
2023-06-27T08:47:24.678Z,88695.00
2023-06-27T08:48:24.654Z,88697.00
2023-06-27T08:49:24.731Z,88697.00
2023-06-27T08:50:24.764Z,88705.00
2023-06-27T08:51:24.831Z,88703.00
2023-06-27T08:52:24.864Z,88701.00
2023-06-27T08:53:24.942Z,88703.00
2023-06-27T08:54:24.980Z,88703.00
2023-06-27T08:55:25.004Z,88693.00
2023-06-27T08:56:25.145Z,88697.00
2023-06-27T08:57:25.113Z,88695.00
2023-06-27T08:58:25.164Z,88693.00
2023-06-27T08:59:25.218Z,88697.00
2023-06-27T09:00:25.222Z,88693.00
2023-06-27T09:01:25.284Z,88693.00
2023-06-27T09:02:25.338Z,88693.00
2023-06-27T09:03:25.391Z,88693.00
2023-06-27T09:04:25.288Z,88693.00
2023-06-27T09:05:25.260Z,88697.00
2023-06-27T09:06:25.304Z,88691.00
2023-06-27T09:07:25.349Z,88689.00
2023-06-27T09:08:25.287Z,88689.00
2023-06-27T09:09:25.304Z,88689.00
2023-06-27T09:10:25.282Z,88693.00
2023-06-27T09:11:25.313Z,88689.00
2023-06-27T09:12:25.277Z,88689.00
2023-06-27T09:13:25.370Z,88693.00
2023-06-27T09:14:25.297Z,88687.00
2023-06-27T09:15:25.320Z,88685.00
2023-06-27T09:16:25.401Z,88687.00
2023-06-27T09:17:25.316Z,88685.00
2023-06-27T09:18:25.302Z,88687.00
2023-06-27T09:19:25.332Z,88681.00
2023-06-27T09:20:25.314Z,88681.00
2023-06-27T09:21:25.308Z,88679.00
2023-06-27T09:22:25.291Z,88679.00
2023-06-27T09:23:25.263Z,88685.00
2023-06-27T09:24:25.295Z,88687.00
2023-06-27T09:25:25.231Z,88691.00
2023-06-27T09:26:25.231Z,88685.00
2023-06-27T09:27:25.209Z,88695.00
2023-06-27T09:28:25.243Z,88691.00
2023-06-27T09:29:25.302Z,88691.00
2023-06-27T09:30:25.348Z,88687.00
2023-06-27T09:31:25.384Z,88687.00
2023-06-27T09:32:26.237Z,88691.00
2023-06-27T09:33:27.559Z,88695.00
2023-06-27T09:34:25.561Z,88695.00
2023-06-27T09:38:44.491Z,88693.00
2023-06-27T09:39:25.565Z,88695.00
2023-06-27T09:40:27.904Z,88693.00
2023-06-27T09:41:25.742Z,88691.00
2023-06-27T09:42:25.784Z,88691.00
2023-06-27T09:43:25.843Z,88691.00
2023-06-27T09:44:25.859Z,88697.00
2023-06-27T09:45:25.860Z,88697.00
2023-06-27T09:46:26.873Z,88691.00
2023-06-27T09:47:25.901Z,88693.00
2023-06-27T09:48:25.838Z,88693.00
2023-06-27T09:49:25.845Z,88693.00
2023-06-27T09:50:25.806Z,88693.00
2023-06-27T09:51:25.790Z,88691.00
2023-06-27T09:52:25.768Z,88693.00
2023-06-27T09:53:26.620Z,88695.00
2023-06-27T09:54:25.742Z,88687.00
2023-06-27T09:55:25.731Z,88689.00
2023-06-27T09:56:25.711Z,88689.00
2023-06-27T09:57:25.783Z,88687.00
2023-06-27T09:58:25.826Z,88685.00
2023-06-27T09:59:26.004Z,88687.00
2023-06-27T10:00:26.092Z,88681.00
2023-06-27T10:01:25.936Z,88681.00
2023-06-27T10:02:25.996Z,88679.00
2023-06-27T10:03:26.038Z,88679.00
2023-06-27T10:05:27.517Z,88679.00
2023-06-27T10:06:26.042Z,88681.00
2023-06-27T10:07:26.042Z,88681.00
2023-06-27T10:08:25.987Z,88681.00
2023-06-27T10:09:25.994Z,88683.00
2023-06-27T10:10:25.987Z,88685.00
2023-06-27T10:11:25.959Z,88679.00
2023-06-27T10:12:25.988Z,88683.00
2023-06-27T10:13:25.945Z,88681.00
2023-06-27T10:14:25.932Z,88683.00
2023-06-27T10:15:25.917Z,88687.00
2023-06-27T10:16:25.901Z,88687.00
2023-06-27T10:17:25.920Z,88689.00
2023-06-27T10:18:25.871Z,88689.00
2023-06-27T10:19:25.933Z,88687.00
2023-06-27T10:20:25.977Z,88687.00
2023-06-27T10:21:26.011Z,88689.00
2023-06-27T10:22:26.060Z,88693.00
2023-06-27T10:23:26.077Z,88691.00
2023-06-27T10:24:26.121Z,88687.00
2023-06-27T10:25:26.136Z,88689.00
2023-06-27T10:26:26.138Z,88691.00
2023-06-27T10:27:26.108Z,88689.00
2023-06-27T10:28:26.125Z,88693.00
2023-06-27T10:29:26.068Z,88691.00
2023-06-27T10:30:26.038Z,88693.00
2023-06-27T10:31:26.083Z,88693.00
2023-06-27T10:32:26.039Z,88695.00
2023-06-27T10:33:25.992Z,88703.00
2023-06-27T10:34:25.980Z,88705.00
2023-06-27T10:35:25.970Z,88703.00
2023-06-27T10:36:25.924Z,88705.00
2023-06-27T10:37:25.925Z,88703.00
2023-06-27T10:38:26.007Z,88705.00
2023-06-27T10:39:25.983Z,88703.00
2023-06-27T10:40:26.014Z,88705.00
2023-06-27T10:41:26.098Z,88703.00
2023-06-27T10:42:26.123Z,88705.00
2023-06-27T10:43:26.175Z,88705.00
2023-06-27T10:44:26.250Z,88707.00
2023-06-27T10:45:26.279Z,88705.00
2023-06-27T10:46:26.336Z,88705.00
2023-06-27T10:47:27.258Z,88705.00
2023-06-27T10:48:26.326Z,88701.00
2023-06-27T10:49:26.308Z,88699.00
2023-06-27T10:50:26.290Z,88701.00
2023-06-27T10:51:26.274Z,88697.00
2023-06-27T10:52:26.250Z,88697.00
2023-06-27T10:53:26.236Z,88691.00
2023-06-27T10:54:28.000Z,88687.00
2023-06-27T10:55:26.202Z,88685.00
2023-06-27T10:56:26.182Z,88679.00
2023-06-27T10:57:26.175Z,88683.00
2023-06-27T10:58:26.161Z,88675.00
2023-06-27T10:59:26.144Z,88679.00
2023-06-27T11:00:26.125Z,88679.00
2023-06-27T11:01:26.106Z,88683.00
2023-06-27T11:02:26.195Z,88679.00
2023-06-27T11:03:26.346Z,88677.00
2023-06-27T11:04:26.597Z,88681.00
2023-06-27T11:05:26.302Z,88677.00
2023-06-27T11:06:26.292Z,88677.00
2023-06-27T11:07:26.322Z,88679.00
2023-06-27T11:08:26.343Z,88679.00
2023-06-27T11:09:26.371Z,88677.00
2023-06-27T11:10:26.388Z,88679.00
2023-06-27T11:11:26.411Z,88675.00
2023-06-27T11:12:26.427Z,88673.00
2023-06-27T11:13:26.454Z,88672.00
2023-06-27T11:14:26.502Z,88672.00
2023-06-27T11:15:26.472Z,88668.00
2023-06-27T11:16:26.628Z,88666.00
2023-06-27T11:17:26.513Z,88666.00
2023-06-27T11:18:26.707Z,88664.00
2023-06-27T11:19:26.495Z,88660.00
2023-06-27T11:20:26.506Z,88662.00
2023-06-27T11:21:26.482Z,88656.00
2023-06-27T11:22:26.444Z,88654.00
2023-06-27T11:23:26.840Z,88658.00
2023-06-27T11:24:26.422Z,88652.00
2023-06-27T11:25:26.382Z,88650.00
2023-06-27T11:26:26.353Z,88652.00
2023-06-27T11:27:26.333Z,88646.00
2023-06-27T11:28:26.332Z,88652.00
2023-06-27T11:29:26.281Z,88654.00
2023-06-27T11:30:26.247Z,88648.00
2023-06-27T11:31:26.270Z,88648.00
2023-06-27T11:32:26.238Z,88650.00
2023-06-27T11:33:26.163Z,88648.00
2023-06-27T11:34:26.129Z,88648.00
2023-06-27T11:35:26.098Z,88646.00
2023-06-27T11:36:26.059Z,88648.00
2023-06-27T11:37:26.023Z,88642.00
2023-06-27T11:38:26.856Z,88642.00
2023-06-27T11:39:25.994Z,88638.00
2023-06-27T11:40:25.941Z,88638.00
2023-06-27T11:41:25.917Z,88632.00
2023-06-27T11:42:25.991Z,88636.00
2023-06-27T11:43:26.019Z,88636.00
2023-06-27T11:44:26.046Z,88638.00
2023-06-27T11:45:26.087Z,88636.00
2023-06-27T11:46:26.146Z,88638.00
2023-06-27T11:47:26.151Z,88636.00
2023-06-27T11:48:26.117Z,88638.00